WARNING - Please set your current conddition source. Defaulted to metar

Welkom op de weersite van Veghel e.o.

Voor vele een welkome verandering , het regent weer.

Temperatuur weer onder 25 graden dus;

Einde aan de hittegolf 2018.

Deze begon op 12 juli t/m 8 augustus totaal van 28 dagen.

Het warmst was het op 26 en 27 juli met 36.6 graden.


Webcam Veghel  Webcam Veghel


Onweer radar Meer informatie blitzortung!


Regen radar Meer informatie rain snow radar


U vindt ons ook hier:

Het Weer Aktueel

European Weather Network

Weather Underground

Benelux Weer Netwerk

AWEKAS


Het weer levert geen direct gevaar op.    Er zijn geen waarschuwingen afgegeven.

METAR rapporten vliegvelden

   
EHAM - Amsterdam
Gewijzigd: 17-10-2018 20:55
Helder  
Helder  
   Wind: NW 5.6 km/h
Wind: NW 5.6 km/h
Temperatuur: 13°C
Dauwpunt: 11°C
Vochtigheid: 88%
Barometer: 1021 hPa
Zicht: meer dan 10 km
Bewolking: Helder ft
EHAM 171855Z 32003KT CAVOK 13/11 Q1021 NOSIG
EHEH - Eindhoven
Gewijzigd: 17-10-2018 20:55
Bewolking  
Bewolking  
   Wind: NNW 9.3 km/h
Wind: NNW 9.3 km/h
Temperatuur: 15°C
Dauwpunt: 12°C
Vochtigheid: 82%
Barometer: 1020 hPa
Bewolking: Overcast
Zicht: meer dan 10 km
Bewolking: Bewolking 24000 ft
EHEH 171855Z AUTO 34005KT 310V020 9999 OVC240 15/12 Q1020 BLU 35004KT CAVOK
EHGR - Gilze/Rijen
Gewijzigd: 17-10-2018 20:55
Bewolking  
Bewolking  
   Wind: NW 7.4 km/h
Wind: NW 7.4 km/h
Temperatuur: 12°C
Dauwpunt: 11°C
Vochtigheid: 94%
Barometer: 1020 hPa
Bewolking: Overcast
Zicht: meer dan 10 km
Bewolking: Bewolking 29000 ft
EHGR 171855Z AUTO 32004KT 9999 OVC290 12/11 Q1020 BLU 31004KT CAVOK
EHBK - Maastricht
Gewijzigd: 17-10-2018 20:55
Gedeeltelijk bewolkt  
Gedeeltelijk bewolkt  
   Wind: Noorden 9.3 km/h
Wind: Noorden 9.3 km/h
Temperatuur: 15°C
Dauwpunt: 13°C
Vochtigheid: 88%
Barometer: 1020 hPa
Bewolking: Partly Cloudy
Zicht: meer dan 10 km
Bewolking: Gedeeltelijk bewolkt ft
EHBK 171855Z AUTO 01005KT 9999 NSC 15/13 Q1020 NOSIG
EHVK - Volkel
Gewijzigd: 17-10-2018 20:55
Bewolking  
Bewolking  
   Wind: Noorden 5.6 km/h
Wind: Noorden 5.6 km/h
Temperatuur: 15°C
Dauwpunt: 12°C
Vochtigheid: 82%
Barometer: 1020 hPa
Bewolking: Overcast
Zicht: meer dan 10 km
Bewolking: Bewolking 27000 ft
EHVK 171855Z AUTO 36003KT 9999 OVC270 15/12 Q1020 BLU
EHFS - Vlissingen
Gewijzigd: 17-10-2018 20:55
Gedeeltelijk bewolkt  
Gedeeltelijk bewolkt  
   Wind: NNO 7.4 km/h
Wind: NNO 7.4 km/h
Temperatuur: 14°C
Dauwpunt: 11°C
Vochtigheid: 82%
Barometer: 1021 hPa
Bewolking: Partly Cloudy
Zicht: meer dan 10 km
Bewolking: Gedeeltelijk bewolkt ft
EHFS 171855Z AUTO 02004KT 9999 NSC 14/11 Q1021 W///H///

Script ontwikkeld door  Saratoga-weather.org Aangepast voor de template door  Weerstation Leuven

Apparatuur in gebruik:

Weerstation
Davis VP2

Weerprogramma
WeatherLink

Weercomputer
Sponsor

Webleverancier
My provider

Davis VP2

WeatherLink

Sponsor

My provider